Hovedside
METAR-TAF:

METAR-TAF

Lufthavner :

Oradea, Romania

breddegrad: 47-03N, lengdegrad: 021-56E, høyde over havet: 135 m

Gjeldene værobservasjon

Denne rapporten ble laget for 30 minutter siden, klokken 03:30 UTC
Vind 7 kt fra Øst
Temperatur 19°C
Luftfuktighet 88%
Trykk 1010 hPa
Sikt 10 km eller mer

METAR: LROD 220330Z AUTO 09007KT 9999 NCD 19/17 Q1010

Tid: 07:00 (04:00 UTC)

Varsel

Denne rapporten ble laget for 2 timer og 0 minutter siden, klokken 02:00 UTC
Varsel gyldig fra 22. klokken 03 UTC til 22. klokken 12 UTC
Vind 8 kt fra Øst
Sikt 10 km eller mer
ingen skyer under 1500 m og ingen bygeskyer
Midlertidig
fra 22. klokken 03 UTC til 22. klokken 05 UTC
Sikt: 5000 m
dis,

TAF: LROD 220200Z 2203/2212 10008KT CAVOK TEMPO 2203/2205 5000 BR

Værobservasjoner og værvarsel for over 4000 flyplasser (METAR- og TAF-rapporter).

Tilgjengelige stasjoner er representert av de røde og gule prikkene på kartet.

Hold musepekeren over prikken for å se navnet på stasjonen.

Klikk så for å se værobservasjoner og -varsler.

For å forandre kartet kan du klikke på den grønne knappen med svart kryss for å zoome inn, på den grønne knappen med strek for å zoome ut, eller på de grønne pilene for å se tilstøtende kart.


METAR-TAF: